sensor_id;sensor_type;location;lat;lon;timestamp;temperature;humidity
46159;DHT22;74657;45.650;25.590;2024-02-26T00:00:24;6.00;99.90
46159;DHT22;74657;45.650;25.590;2024-02-26T00:02:47;6.10;99.90
46159;DHT22;74657;45.650;25.590;2024-02-26T00:05:11;6.00;99.90
46159;DHT22;74657;45.650;25.590;2024-02-26T00:07:34;6.10;99.90
46159;DHT22;74657;45.650;25.590;2024-02-26T00:09:58;6.20;99.90
46159;DHT22;74657;45.650;25.590;2024-02-26T00:12:21;6.20;99.90
46159;DHT22;74657;45.650;25.590;2024-02-26T00:14:46;6.30;99.90
46159;DHT22;74657;45.650;25.590;2024-02-26T00:17:11;6.30;99.90
46159;DHT22;74657;45.650;25.590;2024-02-26T00:19:36;6.20;99.90
46159;DHT22;74657;45.650;25.590;2024-02-26T00:21:58;6.20;99.90
46159;DHT22;74657;45.650;25.590;2024-02-26T00:24:22;6.20;99.90
46159;DHT22;74657;45.650;25.590;2024-02-26T00:26:45;6.10;99.90
46159;DHT22;74657;45.650;25.590;2024-02-26T00:29:14;6.10;99.90
46159;DHT22;74657;45.650;25.590;2024-02-26T00:31:39;6.10;99.90
46159;DHT22;74657;45.650;25.590;2024-02-26T00:34:02;6.00;99.90
46159;DHT22;74657;45.650;25.590;2024-02-26T00:36:26;5.90;99.90
46159;DHT22;74657;45.650;25.590;2024-02-26T00:38:49;6.00;99.90
46159;DHT22;74657;45.650;25.590;2024-02-26T00:41:13;6.00;99.90
46159;DHT22;74657;45.650;25.590;2024-02-26T00:43:36;6.00;99.90
46159;DHT22;74657;45.650;25.590;2024-02-26T00:46:01;5.90;99.90
46159;DHT22;74657;45.650;25.590;2024-02-26T00:48:26;5.90;99.90
46159;DHT22;74657;45.650;25.590;2024-02-26T00:50:50;5.90;99.90
46159;DHT22;74657;45.650;25.590;2024-02-26T00:53:13;5.80;99.90
46159;DHT22;74657;45.650;25.590;2024-02-26T00:55:36;5.80;99.90
46159;DHT22;74657;45.650;25.590;2024-02-26T00:57:59;5.80;99.90
46159;DHT22;74657;45.650;25.590;2024-02-26T01:00:22;5.80;99.90
46159;DHT22;74657;45.650;25.590;2024-02-26T01:02:46;5.70;99.90
46159;DHT22;74657;45.650;25.590;2024-02-26T01:05:11;5.70;99.90
46159;DHT22;74657;45.650;25.590;2024-02-26T01:07:34;5.80;99.90
46159;DHT22;74657;45.650;25.590;2024-02-26T01:09:58;5.70;99.90
46159;DHT22;74657;45.650;25.590;2024-02-26T01:12:22;5.80;99.90
46159;DHT22;74657;45.650;25.590;2024-02-26T01:14:45;5.70;99.90
46159;DHT22;74657;45.650;25.590;2024-02-26T01:17:08;5.70;99.90
46159;DHT22;74657;45.650;25.590;2024-02-26T01:19:31;5.70;99.90
46159;DHT22;74657;45.650;25.590;2024-02-26T01:21:56;5.60;99.90
46159;DHT22;74657;45.650;25.590;2024-02-26T01:24:20;5.60;99.90
46159;DHT22;74657;45.650;25.590;2024-02-26T01:26:43;5.60;99.90
46159;DHT22;74657;45.650;25.590;2024-02-26T01:29:08;5.60;99.90
46159;DHT22;74657;45.650;25.590;2024-02-26T01:31:31;5.60;99.90
46159;DHT22;74657;45.650;25.590;2024-02-26T01:33:54;5.60;99.90
46159;DHT22;74657;45.650;25.590;2024-02-26T01:36:18;5.50;99.90
46159;DHT22;74657;45.650;25.590;2024-02-26T01:38:43;5.50;99.90
46159;DHT22;74657;45.650;25.590;2024-02-26T01:41:06;5.50;99.90
46159;DHT22;74657;45.650;25.590;2024-02-26T01:43:29;5.50;99.90
46159;DHT22;74657;45.650;25.590;2024-02-26T01:45:52;5.40;99.90
46159;DHT22;74657;45.650;25.590;2024-02-26T01:48:16;5.40;99.90
46159;DHT22;74657;45.650;25.590;2024-02-26T01:50:40;5.40;99.90
46159;DHT22;74657;45.650;25.590;2024-02-26T01:53:04;5.30;99.90
46159;DHT22;74657;45.650;25.590;2024-02-26T01:55:29;5.30;99.90
46159;DHT22;74657;45.650;25.590;2024-02-26T01:57:54;5.30;99.90
46159;DHT22;74657;45.650;25.590;2024-02-26T02:00:18;5.20;99.90
46159;DHT22;74657;45.650;25.590;2024-02-26T02:02:41;5.20;99.90
46159;DHT22;74657;45.650;25.590;2024-02-26T02:05:07;5.10;99.90
46159;DHT22;74657;45.650;25.590;2024-02-26T02:07:30;5.10;99.90
46159;DHT22;74657;45.650;25.590;2024-02-26T02:09:54;5.10;99.90
46159;DHT22;74657;45.650;25.590;2024-02-26T02:12:21;4.90;99.90
46159;DHT22;74657;45.650;25.590;2024-02-26T02:14:44;4.90;99.90
46159;DHT22;74657;45.650;25.590;2024-02-26T02:17:07;4.90;99.90
46159;DHT22;74657;45.650;25.590;2024-02-26T02:19:31;4.90;99.90
46159;DHT22;74657;45.650;25.590;2024-02-26T02:21:55;4.90;99.90
46159;DHT22;74657;45.650;25.590;2024-02-26T02:24:19;4.80;99.90
46159;DHT22;74657;45.650;25.590;2024-02-26T02:26:42;4.80;99.90
46159;DHT22;74657;45.650;25.590;2024-02-26T02:29:07;4.80;99.90
46159;DHT22;74657;45.650;25.590;2024-02-26T02:31:31;4.80;99.90
46159;DHT22;74657;45.650;25.590;2024-02-26T02:33:55;4.70;99.90
46159;DHT22;74657;45.650;25.590;2024-02-26T02:36:18;4.70;99.90
46159;DHT22;74657;45.650;25.590;2024-02-26T02:38:50;4.70;99.90
46159;DHT22;74657;45.650;25.590;2024-02-26T02:41:13;4.60;99.90
46159;DHT22;74657;45.650;25.590;2024-02-26T02:43:36;4.60;99.90
46159;DHT22;74657;45.650;25.590;2024-02-26T02:46:00;4.60;99.90
46159;DHT22;74657;45.650;25.590;2024-02-26T02:48:24;4.60;99.90
46159;DHT22;74657;45.650;25.590;2024-02-26T02:50:47;4.60;99.90
46159;DHT22;74657;45.650;25.590;2024-02-26T02:53:11;4.60;99.90
46159;DHT22;74657;45.650;25.590;2024-02-26T02:55:35;4.60;99.90
46159;DHT22;74657;45.650;25.590;2024-02-26T02:57:59;4.50;99.90
46159;DHT22;74657;45.650;25.590;2024-02-26T03:00:22;4.50;99.90
46159;DHT22;74657;45.650;25.590;2024-02-26T03:02:45;4.40;99.90
46159;DHT22;74657;45.650;25.590;2024-02-26T03:05:09;4.40;99.90
46159;DHT22;74657;45.650;25.590;2024-02-26T03:07:32;4.40;99.90
46159;DHT22;74657;45.650;25.590;2024-02-26T03:09:56;4.40;99.90
46159;DHT22;74657;45.650;25.590;2024-02-26T03:12:20;4.40;99.90
46159;DHT22;74657;45.650;25.590;2024-02-26T03:14:43;4.40;99.90
46159;DHT22;74657;45.650;25.590;2024-02-26T03:17:07;4.40;99.90
46159;DHT22;74657;45.650;25.590;2024-02-26T03:19:30;4.40;99.90
46159;DHT22;74657;45.650;25.590;2024-02-26T03:21:53;4.30;99.90
46159;DHT22;74657;45.650;25.590;2024-02-26T03:24:17;4.30;99.90
46159;DHT22;74657;45.650;25.590;2024-02-26T03:26:40;4.40;99.90
46159;DHT22;74657;45.650;25.590;2024-02-26T03:29:05;4.40;99.90
46159;DHT22;74657;45.650;25.590;2024-02-26T03:31:28;4.30;99.90
46159;DHT22;74657;45.650;25.590;2024-02-26T03:33:51;4.30;99.90
46159;DHT22;74657;45.650;25.590;2024-02-26T03:36:15;4.30;99.90
46159;DHT22;74657;45.650;25.590;2024-02-26T03:38:38;4.20;99.90
46159;DHT22;74657;45.650;25.590;2024-02-26T03:41:01;4.20;99.90
46159;DHT22;74657;45.650;25.590;2024-02-26T03:43:24;4.20;99.90
46159;DHT22;74657;45.650;25.590;2024-02-26T03:45:49;4.20;99.90
46159;DHT22;74657;45.650;25.590;2024-02-26T03:48:12;4.20;99.90
46159;DHT22;74657;45.650;25.590;2024-02-26T03:50:36;4.20;99.90
46159;DHT22;74657;45.650;25.590;2024-02-26T03:52:59;4.10;99.90
46159;DHT22;74657;45.650;25.590;2024-02-26T03:55:22;4.20;99.90
46159;DHT22;74657;45.650;25.590;2024-02-26T03:57:46;4.20;99.90
46159;DHT22;74657;45.650;25.590;2024-02-26T04:00:10;4.20;99.90
46159;DHT22;74657;45.650;25.590;2024-02-26T04:02:35;4.20;99.90
46159;DHT22;74657;45.650;25.590;2024-02-26T04:04:58;4.20;99.90
46159;DHT22;74657;45.650;25.590;2024-02-26T04:07:22;4.30;99.90
46159;DHT22;74657;45.650;25.590;2024-02-26T04:09:45;4.30;99.90
46159;DHT22;74657;45.650;25.590;2024-02-26T04:12:09;4.40;99.90
46159;DHT22;74657;45.650;25.590;2024-02-26T04:14:32;4.40;99.90
46159;DHT22;74657;45.650;25.590;2024-02-26T04:16:55;4.40;99.90
46159;DHT22;74657;45.650;25.590;2024-02-26T04:19:20;4.50;99.90
46159;DHT22;74657;45.650;25.590;2024-02-26T04:21:44;4.50;99.90
46159;DHT22;74657;45.650;25.590;2024-02-26T04:24:07;4.50;99.90
46159;DHT22;74657;45.650;25.590;2024-02-26T04:26:31;4.40;99.90
46159;DHT22;74657;45.650;25.590;2024-02-26T04:28:54;4.40;99.90
46159;DHT22;74657;45.650;25.590;2024-02-26T04:31:17;4.50;99.90
46159;DHT22;74657;45.650;25.590;2024-02-26T04:33:41;4.50;99.90
46159;DHT22;74657;45.650;25.590;2024-02-26T04:36:13;4.50;99.90
46159;DHT22;74657;45.650;25.590;2024-02-26T04:38:37;4.50;99.90
46159;DHT22;74657;45.650;25.590;2024-02-26T04:41:00;4.40;99.90
46159;DHT22;74657;45.650;25.590;2024-02-26T04:43:23;4.40;99.90
46159;DHT22;74657;45.650;25.590;2024-02-26T04:45:46;4.40;99.90
46159;DHT22;74657;45.650;25.590;2024-02-26T04:48:09;4.40;99.90
46159;DHT22;74657;45.650;25.590;2024-02-26T04:50:33;4.40;99.90
46159;DHT22;74657;45.650;25.590;2024-02-26T04:52:57;4.40;99.90
46159;DHT22;74657;45.650;25.590;2024-02-26T04:55:21;4.40;99.90
46159;DHT22;74657;45.650;25.590;2024-02-26T04:57:44;4.30;99.90
46159;DHT22;74657;45.650;25.590;2024-02-26T05:00:08;4.30;99.90
46159;DHT22;74657;45.650;25.590;2024-02-26T05:02:32;4.30;99.90
46159;DHT22;74657;45.650;25.590;2024-02-26T05:04:59;4.30;99.90
46159;DHT22;74657;45.650;25.590;2024-02-26T05:07:22;4.30;99.90
46159;DHT22;74657;45.650;25.590;2024-02-26T05:09:47;4.30;99.90
46159;DHT22;74657;45.650;25.590;2024-02-26T05:12:11;4.30;99.90
46159;DHT22;74657;45.650;25.590;2024-02-26T05:14:34;4.30;99.90
46159;DHT22;74657;45.650;25.590;2024-02-26T05:16:57;4.40;99.90
46159;DHT22;74657;45.650;25.590;2024-02-26T05:19:21;4.30;99.90
46159;DHT22;74657;45.650;25.590;2024-02-26T05:21:47;4.40;99.90
46159;DHT22;74657;45.650;25.590;2024-02-26T05:24:12;4.50;99.90
46159;DHT22;74657;45.650;25.590;2024-02-26T05:26:38;4.50;99.90
46159;DHT22;74657;45.650;25.590;2024-02-26T05:29:02;4.50;99.90
46159;DHT22;74657;45.650;25.590;2024-02-26T05:31:25;4.60;99.90
46159;DHT22;74657;45.650;25.590;2024-02-26T05:33:50;4.60;99.90
46159;DHT22;74657;45.650;25.590;2024-02-26T05:36:18;4.70;99.90
46159;DHT22;74657;45.650;25.590;2024-02-26T05:38:44;4.80;99.90
46159;DHT22;74657;45.650;25.590;2024-02-26T05:41:08;4.80;99.90
46159;DHT22;74657;45.650;25.590;2024-02-26T05:43:33;4.90;99.90
46159;DHT22;74657;45.650;25.590;2024-02-26T05:45:56;5.00;99.90
46159;DHT22;74657;45.650;25.590;2024-02-26T05:48:19;5.00;99.90
46159;DHT22;74657;45.650;25.590;2024-02-26T05:50:43;5.10;99.90
46159;DHT22;74657;45.650;25.590;2024-02-26T05:53:06;5.10;99.90
46159;DHT22;74657;45.650;25.590;2024-02-26T05:55:30;5.20;99.90
46159;DHT22;74657;45.650;25.590;2024-02-26T05:57:53;5.20;99.90
46159;DHT22;74657;45.650;25.590;2024-02-26T06:00:18;5.30;99.90
46159;DHT22;74657;45.650;25.590;2024-02-26T06:02:42;5.30;99.90
46159;DHT22;74657;45.650;25.590;2024-02-26T06:05:06;5.50;99.90
46159;DHT22;74657;45.650;25.590;2024-02-26T06:07:30;5.50;99.90
46159;DHT22;74657;45.650;25.590;2024-02-26T06:09:54;5.70;99.90
46159;DHT22;74657;45.650;25.590;2024-02-26T06:12:17;5.70;99.90
46159;DHT22;74657;45.650;25.590;2024-02-26T06:14:42;5.80;99.90
46159;DHT22;74657;45.650;25.590;2024-02-26T06:17:07;5.90;99.90
46159;DHT22;74657;45.650;25.590;2024-02-26T06:19:30;6.00;99.90
46159;DHT22;74657;45.650;25.590;2024-02-26T06:21:53;6.00;99.90
46159;DHT22;74657;45.650;25.590;2024-02-26T06:24:17;6.10;99.90
46159;DHT22;74657;45.650;25.590;2024-02-26T06:26:42;6.10;99.90
46159;DHT22;74657;45.650;25.590;2024-02-26T06:29:05;6.20;99.90
46159;DHT22;74657;45.650;25.590;2024-02-26T06:31:28;6.30;99.90
46159;DHT22;74657;45.650;25.590;2024-02-26T06:33:53;6.40;99.90
46159;DHT22;74657;45.650;25.590;2024-02-26T06:36:17;6.40;99.90
46159;DHT22;74657;45.650;25.590;2024-02-26T06:38:40;6.50;99.90
46159;DHT22;74657;45.650;25.590;2024-02-26T06:41:03;6.50;99.90
46159;DHT22;74657;45.650;25.590;2024-02-26T06:43:26;6.60;99.90
46159;DHT22;74657;45.650;25.590;2024-02-26T06:45:49;6.70;99.90
46159;DHT22;74657;45.650;25.590;2024-02-26T06:48:13;6.90;99.90
46159;DHT22;74657;45.650;25.590;2024-02-26T06:50:37;6.90;99.90
46159;DHT22;74657;45.650;25.590;2024-02-26T06:53:01;7.00;99.90
46159;DHT22;74657;45.650;25.590;2024-02-26T06:55:24;7.10;99.90
46159;DHT22;74657;45.650;25.590;2024-02-26T06:57:48;7.20;99.90
46159;DHT22;74657;45.650;25.590;2024-02-26T07:00:12;7.30;99.90
46159;DHT22;74657;45.650;25.590;2024-02-26T07:02:38;7.30;99.90
46159;DHT22;74657;45.650;25.590;2024-02-26T07:05:02;7.40;99.90
46159;DHT22;74657;45.650;25.590;2024-02-26T07:07:26;7.40;99.90
46159;DHT22;74657;45.650;25.590;2024-02-26T07:09:50;7.50;99.90
46159;DHT22;74657;45.650;25.590;2024-02-26T07:12:13;7.60;99.90
46159;DHT22;74657;45.650;25.590;2024-02-26T07:14:37;7.80;99.90
46159;DHT22;74657;45.650;25.590;2024-02-26T07:17:00;7.90;99.90
46159;DHT22;74657;45.650;25.590;2024-02-26T07:19:24;8.10;99.90
46159;DHT22;74657;45.650;25.590;2024-02-26T07:21:47;8.20;99.90
46159;DHT22;74657;45.650;25.590;2024-02-26T07:24:11;8.40;99.90
46159;DHT22;74657;45.650;25.590;2024-02-26T07:26:36;8.60;99.90
46159;DHT22;74657;45.650;25.590;2024-02-26T07:28:59;8.80;99.90
46159;DHT22;74657;45.650;25.590;2024-02-26T07:31:22;9.10;99.90
46159;DHT22;74657;45.650;25.590;2024-02-26T07:33:46;9.40;99.90
46159;DHT22;74657;45.650;25.590;2024-02-26T07:36:09;9.70;99.90
46159;DHT22;74657;45.650;25.590;2024-02-26T07:38:32;10.00;99.90
46159;DHT22;74657;45.650;25.590;2024-02-26T07:41:05;10.20;99.90
46159;DHT22;74657;45.650;25.590;2024-02-26T07:43:29;10.40;99.90
46159;DHT22;74657;45.650;25.590;2024-02-26T07:45:52;10.70;99.90
46159;DHT22;74657;45.650;25.590;2024-02-26T07:48:16;10.80;99.90
46159;DHT22;74657;45.650;25.590;2024-02-26T07:50:39;11.10;99.90
46159;DHT22;74657;45.650;25.590;2024-02-26T07:53:03;11.30;99.90
46159;DHT22;74657;45.650;25.590;2024-02-26T07:55:27;11.40;99.90
46159;DHT22;74657;45.650;25.590;2024-02-26T07:57:51;11.60;99.90
46159;DHT22;74657;45.650;25.590;2024-02-26T08:00:15;11.70;99.90
46159;DHT22;74657;45.650;25.590;2024-02-26T08:02:38;11.90;99.90
46159;DHT22;74657;45.650;25.590;2024-02-26T08:05:02;12.10;99.90
46159;DHT22;74657;45.650;25.590;2024-02-26T08:07:26;12.20;99.90
46159;DHT22;74657;45.650;25.590;2024-02-26T08:09:49;12.30;99.90
46159;DHT22;74657;45.650;25.590;2024-02-26T08:12:13;12.50;99.90
46159;DHT22;74657;45.650;25.590;2024-02-26T08:14:38;12.70;99.90
46159;DHT22;74657;45.650;25.590;2024-02-26T08:17:01;12.80;99.90
46159;DHT22;74657;45.650;25.590;2024-02-26T08:19:24;12.80;99.90
46159;DHT22;74657;45.650;25.590;2024-02-26T08:21:48;12.90;99.90
46159;DHT22;74657;45.650;25.590;2024-02-26T08:24:12;13.00;99.90
46159;DHT22;74657;45.650;25.590;2024-02-26T08:26:35;13.10;99.90
46159;DHT22;74657;45.650;25.590;2024-02-26T08:28:57;13.30;99.90
46159;DHT22;74657;45.650;25.590;2024-02-26T08:31:22;13.40;99.90
46159;DHT22;74657;45.650;25.590;2024-02-26T08:33:46;13.70;99.90
46159;DHT22;74657;45.650;25.590;2024-02-26T08:36:11;14.00;99.90
46159;DHT22;74657;45.650;25.590;2024-02-26T08:38:36;14.20;99.90
46159;DHT22;74657;45.650;25.590;2024-02-26T08:41:00;14.50;99.90
46159;DHT22;74657;45.650;25.590;2024-02-26T08:43:23;14.90;99.20
46159;DHT22;74657;45.650;25.590;2024-02-26T08:45:46;15.10;98.70
46159;DHT22;74657;45.650;25.590;2024-02-26T08:48:11;15.40;98.30
46159;DHT22;74657;45.650;25.590;2024-02-26T08:50:35;16.20;97.20
46159;DHT22;74657;45.650;25.590;2024-02-26T08:52:58;16.80;95.80
46159;DHT22;74657;45.650;25.590;2024-02-26T08:55:27;16.90;95.20
46159;DHT22;74657;45.650;25.590;2024-02-26T08:57:51;17.00;94.90
46159;DHT22;74657;45.650;25.590;2024-02-26T09:00:15;16.80;94.90
46159;DHT22;74657;45.650;25.590;2024-02-26T09:02:39;16.60;95.00
46159;DHT22;74657;45.650;25.590;2024-02-26T09:05:06;16.60;95.00
46159;DHT22;74657;45.650;25.590;2024-02-26T09:07:30;16.80;95.20
46159;DHT22;74657;45.650;25.590;2024-02-26T09:09:53;17.10;94.70
46159;DHT22;74657;45.650;25.590;2024-02-26T09:12:17;17.50;94.00
46159;DHT22;74657;45.650;25.590;2024-02-26T09:14:41;17.60;93.80
46159;DHT22;74657;45.650;25.590;2024-02-26T09:17:05;17.70;93.50
46159;DHT22;74657;45.650;25.590;2024-02-26T09:19:29;17.70;93.20
46159;DHT22;74657;45.650;25.590;2024-02-26T09:21:54;17.80;93.20
46159;DHT22;74657;45.650;25.590;2024-02-26T09:24:19;18.00;93.00
46159;DHT22;74657;45.650;25.590;2024-02-26T09:26:43;18.60;92.30
46159;DHT22;74657;45.650;25.590;2024-02-26T09:29:06;19.70;91.30
46159;DHT22;74657;45.650;25.590;2024-02-26T09:31:29;20.70;88.90
46159;DHT22;74657;45.650;25.590;2024-02-26T09:33:53;22.40;85.00
46159;DHT22;74657;45.650;25.590;2024-02-26T09:36:21;24.10;79.30
46159;DHT22;74657;45.650;25.590;2024-02-26T09:38:46;25.00;77.00
46159;DHT22;74657;45.650;25.590;2024-02-26T09:41:20;25.80;74.80
46159;DHT22;74657;45.650;25.590;2024-02-26T09:43:45;26.00;72.00
46159;DHT22;74657;45.650;25.590;2024-02-26T09:46:10;25.90;71.30
46159;DHT22;74657;45.650;25.590;2024-02-26T09:48:34;25.70;70.90
46159;DHT22;74657;45.650;25.590;2024-02-26T09:50:58;25.10;71.50
46159;DHT22;74657;45.650;25.590;2024-02-26T09:53:22;24.90;70.80
46159;DHT22;74657;45.650;25.590;2024-02-26T09:55:47;24.80;71.30
46159;DHT22;74657;45.650;25.590;2024-02-26T09:58:10;24.70;71.50
46159;DHT22;74657;45.650;25.590;2024-02-26T10:00:39;24.20;71.50
46159;DHT22;74657;45.650;25.590;2024-02-26T10:03:05;23.30;74.20
46159;DHT22;74657;45.650;25.590;2024-02-26T10:05:29;22.60;75.10
46159;DHT22;74657;45.650;25.590;2024-02-26T10:07:53;21.90;77.00
46159;DHT22;74657;45.650;25.590;2024-02-26T10:10:17;21.30;77.60
46159;DHT22;74657;45.650;25.590;2024-02-26T10:12:43;20.80;79.80
46159;DHT22;74657;45.650;25.590;2024-02-26T10:15:07;20.20;80.40
46159;DHT22;74657;45.650;25.590;2024-02-26T10:17:31;20.10;81.90
46159;DHT22;74657;45.650;25.590;2024-02-26T10:19:54;20.20;81.80
46159;DHT22;74657;45.650;25.590;2024-02-26T10:22:18;20.50;82.10
46159;DHT22;74657;45.650;25.590;2024-02-26T10:24:41;20.80;80.60
46159;DHT22;74657;45.650;25.590;2024-02-26T10:27:05;21.20;79.40
46159;DHT22;74657;45.650;25.590;2024-02-26T10:29:31;21.40;79.90
46159;DHT22;74657;45.650;25.590;2024-02-26T10:31:54;21.30;78.60
46159;DHT22;74657;45.650;25.590;2024-02-26T10:34:18;21.30;79.00
46159;DHT22;74657;45.650;25.590;2024-02-26T10:36:42;21.50;79.10
46159;DHT22;74657;45.650;25.590;2024-02-26T10:39:14;21.60;78.30
46159;DHT22;74657;45.650;25.590;2024-02-26T10:41:37;21.90;77.10
46159;DHT22;74657;45.650;25.590;2024-02-26T10:44:01;21.90;77.00
46159;DHT22;74657;45.650;25.590;2024-02-26T10:46:25;21.80;77.60
46159;DHT22;74657;45.650;25.590;2024-02-26T10:48:52;21.40;79.10
46159;DHT22;74657;45.650;25.590;2024-02-26T10:51:17;21.20;79.30
46159;DHT22;74657;45.650;25.590;2024-02-26T10:53:41;21.00;79.70
46159;DHT22;74657;45.650;25.590;2024-02-26T10:56:07;20.70;80.50
46159;DHT22;74657;45.650;25.590;2024-02-26T10:58:32;20.60;80.90
46159;DHT22;74657;45.650;25.590;2024-02-26T11:00:56;20.70;81.10
46159;DHT22;74657;45.650;25.590;2024-02-26T11:03:22;20.60;81.00
46159;DHT22;74657;45.650;25.590;2024-02-26T11:05:48;20.40;81.10
46159;DHT22;74657;45.650;25.590;2024-02-26T11:08:12;20.40;81.60
46159;DHT22;74657;45.650;25.590;2024-02-26T11:10:36;20.50;81.70
46159;DHT22;74657;45.650;25.590;2024-02-26T11:13:00;20.30;81.70
46159;DHT22;74657;45.650;25.590;2024-02-26T11:15:24;20.00;82.10
46159;DHT22;74657;45.650;25.590;2024-02-26T11:17:48;19.50;83.50
46159;DHT22;74657;45.650;25.590;2024-02-26T11:20:14;19.10;84.40
46159;DHT22;74657;45.650;25.590;2024-02-26T11:22:37;18.90;84.70
46159;DHT22;74657;45.650;25.590;2024-02-26T11:25:01;18.90;85.50
46159;DHT22;74657;45.650;25.590;2024-02-26T11:27:27;19.60;84.20
46159;DHT22;74657;45.650;25.590;2024-02-26T11:29:53;19.90;82.50
46159;DHT22;74657;45.650;25.590;2024-02-26T11:32:19;19.90;82.10
46159;DHT22;74657;45.650;25.590;2024-02-26T11:34:42;19.80;82.30
46159;DHT22;74657;45.650;25.590;2024-02-26T11:37:12;19.80;83.00
46159;DHT22;74657;45.650;25.590;2024-02-26T11:39:36;19.70;82.40
46159;DHT22;74657;45.650;25.590;2024-02-26T11:42:06;19.70;82.10
46159;DHT22;74657;45.650;25.590;2024-02-26T11:44:29;19.50;83.10
46159;DHT22;74657;45.650;25.590;2024-02-26T11:46:52;19.40;83.70
46159;DHT22;74657;45.650;25.590;2024-02-26T11:49:31;19.30;84.00
46159;DHT22;74657;45.650;25.590;2024-02-26T11:51:57;19.10;84.00
46159;DHT22;74657;45.650;25.590;2024-02-26T11:54:46;18.90;84.20
46159;DHT22;74657;45.650;25.590;2024-02-26T11:57:26;18.80;84.80
46159;DHT22;74657;45.650;25.590;2024-02-26T11:59:51;18.70;86.30
46159;DHT22;74657;45.650;25.590;2024-02-26T12:02:38;18.70;86.50
46159;DHT22;74657;45.650;25.590;2024-02-26T12:05:02;18.60;85.00
46159;DHT22;74657;45.650;25.590;2024-02-26T12:07:28;18.50;84.90
46159;DHT22;74657;45.650;25.590;2024-02-26T12:09:52;18.50;85.60
46159;DHT22;74657;45.650;25.590;2024-02-26T12:12:36;18.50;85.80
46159;DHT22;74657;45.650;25.590;2024-02-26T12:15:02;18.50;86.20
46159;DHT22;74657;45.650;25.590;2024-02-26T12:17:26;18.60;85.60
46159;DHT22;74657;45.650;25.590;2024-02-26T12:19:49;18.60;85.40
46159;DHT22;74657;45.650;25.590;2024-02-26T12:22:14;18.80;85.00
46159;DHT22;74657;45.650;25.590;2024-02-26T12:24:37;18.90;83.90
46159;DHT22;74657;45.650;25.590;2024-02-26T12:27:03;18.90;83.90
46159;DHT22;74657;45.650;25.590;2024-02-26T12:29:26;19.10;83.60
46159;DHT22;74657;45.650;25.590;2024-02-26T12:31:50;19.50;81.30
46159;DHT22;74657;45.650;25.590;2024-02-26T12:34:13;19.90;79.90
46159;DHT22;74657;45.650;25.590;2024-02-26T12:36:39;19.90;76.00
46159;DHT22;74657;45.650;25.590;2024-02-26T12:39:02;19.90;75.10
46159;DHT22;74657;45.650;25.590;2024-02-26T12:41:27;19.70;77.10
46159;DHT22;74657;45.650;25.590;2024-02-26T12:43:53;19.60;77.90
46159;DHT22;74657;45.650;25.590;2024-02-26T12:46:17;19.30;80.00
46159;DHT22;74657;45.650;25.590;2024-02-26T12:48:42;19.10;81.00
46159;DHT22;74657;45.650;25.590;2024-02-26T12:51:06;19.20;81.50
46159;DHT22;74657;45.650;25.590;2024-02-26T12:53:32;19.30;81.30
46159;DHT22;74657;45.650;25.590;2024-02-26T12:55:55;19.30;79.40
46159;DHT22;74657;45.650;25.590;2024-02-26T12:58:20;19.20;79.00
46159;DHT22;74657;45.650;25.590;2024-02-26T13:00:47;19.10;78.60
46159;DHT22;74657;45.650;25.590;2024-02-26T13:03:11;18.90;79.00
46159;DHT22;74657;45.650;25.590;2024-02-26T13:05:35;18.90;78.00
46159;DHT22;74657;45.650;25.590;2024-02-26T13:07:59;18.70;79.20
46159;DHT22;74657;45.650;25.590;2024-02-26T13:10:25;18.40;80.60
46159;DHT22;74657;45.650;25.590;2024-02-26T13:12:49;18.20;80.70
46159;DHT22;74657;45.650;25.590;2024-02-26T13:15:15;18.10;79.30
46159;DHT22;74657;45.650;25.590;2024-02-26T13:17:40;17.80;79.00
46159;DHT22;74657;45.650;25.590;2024-02-26T13:20:05;17.70;79.50
46159;DHT22;74657;45.650;25.590;2024-02-26T13:22:35;17.50;79.00
46159;DHT22;74657;45.650;25.590;2024-02-26T13:24:59;17.50;79.00
46159;DHT22;74657;45.650;25.590;2024-02-26T13:27:25;17.40;77.80
46159;DHT22;74657;45.650;25.590;2024-02-26T13:29:49;17.30;78.70
46159;DHT22;74657;45.650;25.590;2024-02-26T13:32:12;17.20;78.90
46159;DHT22;74657;45.650;25.590;2024-02-26T13:34:37;17.20;77.30
46159;DHT22;74657;45.650;25.590;2024-02-26T13:37:01;17.00;78.10
46159;DHT22;74657;45.650;25.590;2024-02-26T13:39:25;16.90;78.20
46159;DHT22;74657;45.650;25.590;2024-02-26T13:41:49;16.70;76.40
46159;DHT22;74657;45.650;25.590;2024-02-26T13:44:12;16.60;76.80
46159;DHT22;74657;45.650;25.590;2024-02-26T13:46:35;16.40;77.90
46159;DHT22;74657;45.650;25.590;2024-02-26T13:48:59;16.40;79.30
46159;DHT22;74657;45.650;25.590;2024-02-26T13:51:24;16.30;80.00
46159;DHT22;74657;45.650;25.590;2024-02-26T13:53:47;16.30;79.90
46159;DHT22;74657;45.650;25.590;2024-02-26T13:56:11;16.30;80.70
46159;DHT22;74657;45.650;25.590;2024-02-26T13:58:35;16.20;80.10
46159;DHT22;74657;45.650;25.590;2024-02-26T14:00:58;16.20;80.30
46159;DHT22;74657;45.650;25.590;2024-02-26T14:03:25;16.20;80.70
46159;DHT22;74657;45.650;25.590;2024-02-26T14:05:50;16.20;81.10
46159;DHT22;74657;45.650;25.590;2024-02-26T14:08:15;16.10;81.70
46159;DHT22;74657;45.650;25.590;2024-02-26T14:10:39;16.00;82.00
46159;DHT22;74657;45.650;25.590;2024-02-26T14:13:02;15.90;82.60
46159;DHT22;74657;45.650;25.590;2024-02-26T14:15:26;15.80;82.50
46159;DHT22;74657;45.650;25.590;2024-02-26T14:17:50;15.70;83.30
46159;DHT22;74657;45.650;25.590;2024-02-26T14:20:18;15.60;84.20
46159;DHT22;74657;45.650;25.590;2024-02-26T14:22:41;15.60;84.10
46159;DHT22;74657;45.650;25.590;2024-02-26T14:25:07;15.50;84.20
46159;DHT22;74657;45.650;25.590;2024-02-26T14:27:32;15.40;84.90
46159;DHT22;74657;45.650;25.590;2024-02-26T14:29:55;15.30;86.00
46159;DHT22;74657;45.650;25.590;2024-02-26T14:32:18;15.20;85.10
46159;DHT22;74657;45.650;25.590;2024-02-26T14:34:42;15.10;86.10
46159;DHT22;74657;45.650;25.590;2024-02-26T14:37:06;15.00;87.30
46159;DHT22;74657;45.650;25.590;2024-02-26T14:39:29;14.90;86.30
46159;DHT22;74657;45.650;25.590;2024-02-26T14:41:54;14.80;86.60
46159;DHT22;74657;45.650;25.590;2024-02-26T14:44:18;14.70;86.90
46159;DHT22;74657;45.650;25.590;2024-02-26T14:46:42;14.50;86.40
46159;DHT22;74657;45.650;25.590;2024-02-26T14:49:05;14.40;86.60
46159;DHT22;74657;45.650;25.590;2024-02-26T14:51:32;14.30;89.00
46159;DHT22;74657;45.650;25.590;2024-02-26T14:53:56;14.20;87.90
46159;DHT22;74657;45.650;25.590;2024-02-26T14:56:20;14.10;86.60
46159;DHT22;74657;45.650;25.590;2024-02-26T14:58:45;13.90;87.70
46159;DHT22;74657;45.650;25.590;2024-02-26T15:01:09;13.80;87.30
46159;DHT22;74657;45.650;25.590;2024-02-26T15:03:33;13.70;87.40